Hauptseite
METAR-TAF:

METAR-TAF

Flughäfen :

Oxford, England

London Oxford Airport

Breite: 51-50-13N, Länge: 1-19-12W, Höhe: 82 m

Beobachtung

Neuester Wetterbericht von vor 1 Stunde und 56 Minuten, um 22:20 UTC
Wind 4 kt aus Süd/Südwest
Temperatur 5°C
Luftfeuchtigkeit 87%
Luftdruck 1022 hPa
Sichtweite 10 km oder mehr
Leicht bewölkt in der Höhe von 3200 ft
Geschlossene Wolkendecke in der Höhe von 4400 ft

METAR: EGTK 192220Z 21004KT 9999 FEW032 OVC044 05/03 Q1022

Zeit: 00:16 (00:16 UTC)

Prognose

Neuester Wetterbericht von vor 4 Stunden und 14 Minuten, um 20:02 UTC
Gültige Prognose vom 19 um 21 UTC bis 19 um 23 UTC
Wind 4 kt aus Südwest
Sichtweite 10 km oder mehr
Leicht bewölkt in der Höhe von 4500 ft

TAF: EGTK 192002Z 1921/1923 23004KT 9999 FEW045

Wetterbeobachtungen und Prognosen von mehr als 4000 Flughäfen (METAR und TAF Bericht).

Die verfügbaren Stationen werden durch gelbe und rote Markierungen auf der Karte dargestellt.

Führen Sie die Maus auf sie, um den Namen der Station zu sehen.

Darauf klicken, um die Beobachtung von Wetterbeobachtungen und Prognosen zu sehen.

Um die Karte zu ändern : klicken Sie auf den grünen Tasten mit einem schwarzen Kreuz Zum Vergrößern, auf den grünen Button mit einem Gedankenstrich zu verkleinern, oder auf die grünen Pfeile für benachbarte Karten.


METAR-TAF: